sensor_id;sensor_type;location;lat;lon;timestamp;temperature;humidity
70475;DHT22;57944;48.722;9.316;2024-02-26T00:00:57;8.00;99.90
70475;DHT22;57944;48.722;9.316;2024-02-26T00:03:27;7.90;99.90
70475;DHT22;57944;48.722;9.316;2024-02-26T00:05:59;8.00;99.90
70475;DHT22;57944;48.722;9.316;2024-02-26T00:08:33;8.00;99.90
70475;DHT22;57944;48.722;9.316;2024-02-26T00:11:03;8.00;99.90
70475;DHT22;57944;48.722;9.316;2024-02-26T00:13:33;7.90;99.90
70475;DHT22;57944;48.722;9.316;2024-02-26T00:16:04;7.90;99.90
70475;DHT22;57944;48.722;9.316;2024-02-26T00:18:35;7.90;99.90
70475;DHT22;57944;48.722;9.316;2024-02-26T00:21:05;7.90;99.90
70475;DHT22;57944;48.722;9.316;2024-02-26T00:23:38;7.80;99.90
70475;DHT22;57944;48.722;9.316;2024-02-26T00:26:08;7.80;99.90
70475;DHT22;57944;48.722;9.316;2024-02-26T00:28:39;7.80;99.90
70475;DHT22;57944;48.722;9.316;2024-02-26T00:31:09;7.70;99.90
70475;DHT22;57944;48.722;9.316;2024-02-26T00:33:39;7.70;99.90
70475;DHT22;57944;48.722;9.316;2024-02-26T00:36:10;7.70;99.90
70475;DHT22;57944;48.722;9.316;2024-02-26T00:38:43;7.70;99.90
70475;DHT22;57944;48.722;9.316;2024-02-26T00:41:18;7.70;99.90
70475;DHT22;57944;48.722;9.316;2024-02-26T00:43:49;7.70;99.90
70475;DHT22;57944;48.722;9.316;2024-02-26T00:46:19;7.70;99.90
70475;DHT22;57944;48.722;9.316;2024-02-26T00:48:49;7.70;99.90
70475;DHT22;57944;48.722;9.316;2024-02-26T00:51:19;7.70;99.90
70475;DHT22;57944;48.722;9.316;2024-02-26T00:53:54;7.70;99.90
70475;DHT22;57944;48.722;9.316;2024-02-26T00:56:25;7.80;99.90
70475;DHT22;57944;48.722;9.316;2024-02-26T00:58:55;7.80;99.90
70475;DHT22;57944;48.722;9.316;2024-02-26T01:01:25;7.80;99.90
70475;DHT22;57944;48.722;9.316;2024-02-26T01:03:56;7.90;99.90
70475;DHT22;57944;48.722;9.316;2024-02-26T01:06:26;7.80;99.90
70475;DHT22;57944;48.722;9.316;2024-02-26T01:08:59;7.90;99.90
70475;DHT22;57944;48.722;9.316;2024-02-26T01:11:30;7.90;99.90
70475;DHT22;57944;48.722;9.316;2024-02-26T01:14:00;7.90;99.90
70475;DHT22;57944;48.722;9.316;2024-02-26T01:16:31;7.80;99.90
70475;DHT22;57944;48.722;9.316;2024-02-26T01:19:01;7.80;99.90
70475;DHT22;57944;48.722;9.316;2024-02-26T01:21:31;7.90;99.90
70475;DHT22;57944;48.722;9.316;2024-02-26T01:24:05;7.90;99.90
70475;DHT22;57944;48.722;9.316;2024-02-26T01:26:36;7.90;99.90
70475;DHT22;57944;48.722;9.316;2024-02-26T01:29:06;7.90;99.90
70475;DHT22;57944;48.722;9.316;2024-02-26T01:31:36;7.90;99.90
70475;DHT22;57944;48.722;9.316;2024-02-26T01:34:07;7.70;99.90
70475;DHT22;57944;48.722;9.316;2024-02-26T01:36:38;7.70;99.90
70475;DHT22;57944;48.722;9.316;2024-02-26T01:39:10;7.80;99.90
70475;DHT22;57944;48.722;9.316;2024-02-26T01:41:41;7.70;99.90
70475;DHT22;57944;48.722;9.316;2024-02-26T01:44:12;7.80;99.90
70475;DHT22;57944;48.722;9.316;2024-02-26T01:46:43;7.70;99.90
70475;DHT22;57944;48.722;9.316;2024-02-26T01:49:13;7.70;99.90
70475;DHT22;57944;48.722;9.316;2024-02-26T01:51:45;7.60;99.90
70475;DHT22;57944;48.722;9.316;2024-02-26T01:54:19;7.40;99.90
70475;DHT22;57944;48.722;9.316;2024-02-26T01:56:50;7.40;99.90
70475;DHT22;57944;48.722;9.316;2024-02-26T01:59:20;7.30;99.90
70475;DHT22;57944;48.722;9.316;2024-02-26T02:01:54;7.30;99.90
70475;DHT22;57944;48.722;9.316;2024-02-26T02:04:27;7.30;99.90
70475;DHT22;57944;48.722;9.316;2024-02-26T02:06:58;7.40;99.90
70475;DHT22;57944;48.722;9.316;2024-02-26T02:09:33;7.20;99.90
70475;DHT22;57944;48.722;9.316;2024-02-26T02:12:03;7.30;99.90
70475;DHT22;57944;48.722;9.316;2024-02-26T02:14:35;7.10;99.90
70475;DHT22;57944;48.722;9.316;2024-02-26T02:17:06;7.10;99.90
70475;DHT22;57944;48.722;9.316;2024-02-26T02:19:37;7.00;99.90
70475;DHT22;57944;48.722;9.316;2024-02-26T02:22:10;7.00;99.90
70475;DHT22;57944;48.722;9.316;2024-02-26T02:24:40;6.90;99.90
70475;DHT22;57944;48.722;9.316;2024-02-26T02:27:10;6.80;99.90
70475;DHT22;57944;48.722;9.316;2024-02-26T02:29:41;7.00;99.90
70475;DHT22;57944;48.722;9.316;2024-02-26T02:32:12;7.10;99.90
70475;DHT22;57944;48.722;9.316;2024-02-26T02:34:44;7.10;99.90
70475;DHT22;57944;48.722;9.316;2024-02-26T02:37:18;7.20;99.90
70475;DHT22;57944;48.722;9.316;2024-02-26T02:39:48;7.10;99.90
70475;DHT22;57944;48.722;9.316;2024-02-26T02:42:20;7.00;99.90
70475;DHT22;57944;48.722;9.316;2024-02-26T02:44:51;7.10;99.90
70475;DHT22;57944;48.722;9.316;2024-02-26T02:47:21;7.00;99.90
70475;DHT22;57944;48.722;9.316;2024-02-26T02:49:52;7.00;99.90
70475;DHT22;57944;48.722;9.316;2024-02-26T02:52:24;7.10;99.90
70475;DHT22;57944;48.722;9.316;2024-02-26T02:54:55;7.20;99.90
70475;DHT22;57944;48.722;9.316;2024-02-26T02:57:25;7.30;99.90
70475;DHT22;57944;48.722;9.316;2024-02-26T02:59:56;7.30;99.90
70475;DHT22;57944;48.722;9.316;2024-02-26T03:02:26;7.30;99.90
70475;DHT22;57944;48.722;9.316;2024-02-26T03:04:56;7.30;99.90
70475;DHT22;57944;48.722;9.316;2024-02-26T03:07:29;7.30;99.90
70475;DHT22;57944;48.722;9.316;2024-02-26T03:10:00;7.30;99.90
70475;DHT22;57944;48.722;9.316;2024-02-26T03:12:30;7.20;99.90
70475;DHT22;57944;48.722;9.316;2024-02-26T03:15:02;7.30;99.90
70475;DHT22;57944;48.722;9.316;2024-02-26T03:17:32;7.30;99.90
70475;DHT22;57944;48.722;9.316;2024-02-26T03:20:03;7.30;99.90
70475;DHT22;57944;48.722;9.316;2024-02-26T03:22:38;7.30;99.90
70475;DHT22;57944;48.722;9.316;2024-02-26T03:25:09;7.30;99.90
70475;DHT22;57944;48.722;9.316;2024-02-26T03:27:39;7.30;99.90
70475;DHT22;57944;48.722;9.316;2024-02-26T03:30:10;7.20;99.90
70475;DHT22;57944;48.722;9.316;2024-02-26T03:32:40;7.20;99.90
70475;DHT22;57944;48.722;9.316;2024-02-26T03:35:11;7.30;99.90
70475;DHT22;57944;48.722;9.316;2024-02-26T03:37:46;7.40;99.90
70475;DHT22;57944;48.722;9.316;2024-02-26T03:40:17;7.40;99.90
70475;DHT22;57944;48.722;9.316;2024-02-26T03:42:47;7.30;99.90
70475;DHT22;57944;48.722;9.316;2024-02-26T03:45:19;7.30;99.90
70475;DHT22;57944;48.722;9.316;2024-02-26T03:47:50;7.30;99.90
70475;DHT22;57944;48.722;9.316;2024-02-26T03:50:20;7.40;99.90
70475;DHT22;57944;48.722;9.316;2024-02-26T03:52:53;7.40;99.90
70475;DHT22;57944;48.722;9.316;2024-02-26T03:55:24;7.30;99.90
70475;DHT22;57944;48.722;9.316;2024-02-26T03:57:55;7.30;99.90
70475;DHT22;57944;48.722;9.316;2024-02-26T04:00:25;7.20;99.90
70475;DHT22;57944;48.722;9.316;2024-02-26T04:02:57;7.10;99.90
70475;DHT22;57944;48.722;9.316;2024-02-26T04:05:27;7.10;99.90
70475;DHT22;57944;48.722;9.316;2024-02-26T04:08:00;7.00;99.90
70475;DHT22;57944;48.722;9.316;2024-02-26T04:10:31;7.10;99.90
70475;DHT22;57944;48.722;9.316;2024-02-26T04:13:02;7.10;99.90
70475;DHT22;57944;48.722;9.316;2024-02-26T04:15:33;7.10;99.90
70475;DHT22;57944;48.722;9.316;2024-02-26T04:18:03;7.10;99.90
70475;DHT22;57944;48.722;9.316;2024-02-26T04:20:34;7.10;99.90
70475;DHT22;57944;48.722;9.316;2024-02-26T04:23:07;7.10;99.90
70475;DHT22;57944;48.722;9.316;2024-02-26T04:25:38;7.20;99.90
70475;DHT22;57944;48.722;9.316;2024-02-26T04:28:08;7.20;99.90
70475;DHT22;57944;48.722;9.316;2024-02-26T04:30:40;7.20;99.90
70475;DHT22;57944;48.722;9.316;2024-02-26T04:33:10;7.20;99.90
70475;DHT22;57944;48.722;9.316;2024-02-26T04:35:41;7.20;99.90
70475;DHT22;57944;48.722;9.316;2024-02-26T04:38:14;7.20;99.90
70475;DHT22;57944;48.722;9.316;2024-02-26T04:40:44;7.20;99.90
70475;DHT22;57944;48.722;9.316;2024-02-26T04:43:14;7.30;99.90
70475;DHT22;57944;48.722;9.316;2024-02-26T04:45:46;7.30;99.90
70475;DHT22;57944;48.722;9.316;2024-02-26T04:48:16;7.20;99.90
70475;DHT22;57944;48.722;9.316;2024-02-26T04:50:47;7.10;99.90
70475;DHT22;57944;48.722;9.316;2024-02-26T04:53:20;7.10;99.90
70475;DHT22;57944;48.722;9.316;2024-02-26T04:55:50;7.10;99.90
70475;DHT22;57944;48.722;9.316;2024-02-26T04:58:20;6.90;99.90
70475;DHT22;57944;48.722;9.316;2024-02-26T05:00:51;6.90;99.90
70475;DHT22;57944;48.722;9.316;2024-02-26T05:03:22;6.90;99.90
70475;DHT22;57944;48.722;9.316;2024-02-26T05:05:52;6.90;99.90
70475;DHT22;57944;48.722;9.316;2024-02-26T05:08:27;7.00;99.90
70475;DHT22;57944;48.722;9.316;2024-02-26T05:10:58;7.00;99.90
70475;DHT22;57944;48.722;9.316;2024-02-26T05:13:30;7.00;99.90
70475;DHT22;57944;48.722;9.316;2024-02-26T05:16:00;7.00;99.90
70475;DHT22;57944;48.722;9.316;2024-02-26T05:18:30;7.00;99.90
70475;DHT22;57944;48.722;9.316;2024-02-26T05:21:01;7.10;99.90
70475;DHT22;57944;48.722;9.316;2024-02-26T05:23:34;7.10;99.90
70475;DHT22;57944;48.722;9.316;2024-02-26T05:26:04;7.10;99.90
70475;DHT22;57944;48.722;9.316;2024-02-26T05:28:35;7.10;99.90
70475;DHT22;57944;48.722;9.316;2024-02-26T05:31:06;7.00;99.90
70475;DHT22;57944;48.722;9.316;2024-02-26T05:33:37;6.90;99.90
70475;DHT22;57944;48.722;9.316;2024-02-26T05:36:07;6.80;99.90
70475;DHT22;57944;48.722;9.316;2024-02-26T05:38:40;6.70;99.90
70475;DHT22;57944;48.722;9.316;2024-02-26T05:41:14;6.60;99.90
70475;DHT22;57944;48.722;9.316;2024-02-26T05:43:50;6.70;99.90
70475;DHT22;57944;48.722;9.316;2024-02-26T05:46:21;6.70;99.90
70475;DHT22;57944;48.722;9.316;2024-02-26T05:48:52;6.80;99.90
70475;DHT22;57944;48.722;9.316;2024-02-26T05:51:23;6.90;99.90
70475;DHT22;57944;48.722;9.316;2024-02-26T05:53:56;6.80;99.90
70475;DHT22;57944;48.722;9.316;2024-02-26T05:56:26;6.90;99.90
70475;DHT22;57944;48.722;9.316;2024-02-26T05:58:56;6.90;99.90
70475;DHT22;57944;48.722;9.316;2024-02-26T06:01:27;6.80;99.90
70475;DHT22;57944;48.722;9.316;2024-02-26T06:54:00;6.60;99.90
70475;DHT22;57944;48.722;9.316;2024-02-26T06:56:30;6.70;99.90
70475;DHT22;57944;48.722;9.316;2024-02-26T06:59:00;6.80;99.90
70475;DHT22;57944;48.722;9.316;2024-02-26T07:01:31;6.90;99.90
70475;DHT22;57944;48.722;9.316;2024-02-26T07:04:01;7.10;99.90
70475;DHT22;57944;48.722;9.316;2024-02-26T07:06:32;7.30;99.90
70475;DHT22;57944;48.722;9.316;2024-02-26T07:09:05;7.40;99.90
70475;DHT22;57944;48.722;9.316;2024-02-26T07:11:35;7.60;99.90
70475;DHT22;57944;48.722;9.316;2024-02-26T07:16:39;8.00;99.90
70475;DHT22;57944;48.722;9.316;2024-02-26T07:19:09;8.00;99.90
70475;DHT22;57944;48.722;9.316;2024-02-26T07:21:40;8.00;99.90
70475;DHT22;57944;48.722;9.316;2024-02-26T07:24:13;8.10;99.90
70475;DHT22;57944;48.722;9.316;2024-02-26T07:26:43;8.30;99.90
70475;DHT22;57944;48.722;9.316;2024-02-26T07:29:13;8.40;99.90
70475;DHT22;57944;48.722;9.316;2024-02-26T07:31:44;8.50;99.90
70475;DHT22;57944;48.722;9.316;2024-02-26T07:34:14;8.50;99.90
70475;DHT22;57944;48.722;9.316;2024-02-26T07:36:45;8.50;99.90
70475;DHT22;57944;48.722;9.316;2024-02-26T07:39:18;8.50;99.90
70475;DHT22;57944;48.722;9.316;2024-02-26T07:41:48;8.50;99.90
70475;DHT22;57944;48.722;9.316;2024-02-26T07:44:20;8.50;99.90
70475;DHT22;57944;48.722;9.316;2024-02-26T07:46:52;8.60;99.90
70475;DHT22;57944;48.722;9.316;2024-02-26T07:49:22;8.60;99.90
70475;DHT22;57944;48.722;9.316;2024-02-26T07:51:53;8.70;99.90
70475;DHT22;57944;48.722;9.316;2024-02-26T07:54:27;8.80;99.90
70475;DHT22;57944;48.722;9.316;2024-02-26T07:56:58;8.90;99.90
70475;DHT22;57944;48.722;9.316;2024-02-26T07:59:29;8.90;99.90
70475;DHT22;57944;48.722;9.316;2024-02-26T08:01:59;9.00;99.90
70475;DHT22;57944;48.722;9.316;2024-02-26T08:04:30;9.00;99.90
70475;DHT22;57944;48.722;9.316;2024-02-26T08:07:00;9.10;99.90
70475;DHT22;57944;48.722;9.316;2024-02-26T08:09:33;9.20;99.90
70475;DHT22;57944;48.722;9.316;2024-02-26T08:12:05;9.30;99.90
70475;DHT22;57944;48.722;9.316;2024-02-26T08:14:36;9.40;99.90
70475;DHT22;57944;48.722;9.316;2024-02-26T08:17:06;9.40;99.90
70475;DHT22;57944;48.722;9.316;2024-02-26T08:19:36;9.50;99.90
70475;DHT22;57944;48.722;9.316;2024-02-26T08:22:07;9.50;99.90
70475;DHT22;57944;48.722;9.316;2024-02-26T08:24:45;9.40;99.90
70475;DHT22;57944;48.722;9.316;2024-02-26T08:27:15;9.30;99.90
70475;DHT22;57944;48.722;9.316;2024-02-26T08:29:49;9.50;99.90
70475;DHT22;57944;48.722;9.316;2024-02-26T08:32:19;9.60;99.90
70475;DHT22;57944;48.722;9.316;2024-02-26T08:34:49;9.80;99.90
70475;DHT22;57944;48.722;9.316;2024-02-26T08:37:20;10.00;99.90
70475;DHT22;57944;48.722;9.316;2024-02-26T08:39:53;10.10;99.90
70475;DHT22;57944;48.722;9.316;2024-02-26T08:42:25;10.30;99.90
70475;DHT22;57944;48.722;9.316;2024-02-26T08:44:55;10.50;99.90
70475;DHT22;57944;48.722;9.316;2024-02-26T08:47:27;10.60;99.90
70475;DHT22;57944;48.722;9.316;2024-02-26T08:49:57;10.60;99.90
70475;DHT22;57944;48.722;9.316;2024-02-26T08:52:28;10.70;99.90
70475;DHT22;57944;48.722;9.316;2024-02-26T08:55:01;10.90;99.90
70475;DHT22;57944;48.722;9.316;2024-02-26T08:57:31;10.90;99.90
70475;DHT22;57944;48.722;9.316;2024-02-26T09:00:03;11.00;99.90
70475;DHT22;57944;48.722;9.316;2024-02-26T09:02:34;11.20;99.90
70475;DHT22;57944;48.722;9.316;2024-02-26T09:05:06;11.30;99.90
70475;DHT22;57944;48.722;9.316;2024-02-26T09:07:37;11.50;99.90
70475;DHT22;57944;48.722;9.316;2024-02-26T09:10:10;11.80;99.90
70475;DHT22;57944;48.722;9.316;2024-02-26T09:12:41;11.90;99.90
70475;DHT22;57944;48.722;9.316;2024-02-26T09:15:11;11.90;99.90
70475;DHT22;57944;48.722;9.316;2024-02-26T09:17:40;11.90;99.90
70475;DHT22;57944;48.722;9.316;2024-02-26T09:20:11;11.80;99.90
70475;DHT22;57944;48.722;9.316;2024-02-26T09:22:42;11.90;99.90
70475;DHT22;57944;48.722;9.316;2024-02-26T09:25:15;11.90;99.90
70475;DHT22;57944;48.722;9.316;2024-02-26T09:27:46;12.10;99.90
70475;DHT22;57944;48.722;9.316;2024-02-26T09:30:16;12.20;99.90
70475;DHT22;57944;48.722;9.316;2024-02-26T09:35:18;12.50;99.90
70475;DHT22;57944;48.722;9.316;2024-02-26T09:37:48;12.40;99.90
70475;DHT22;57944;48.722;9.316;2024-02-26T09:40:21;12.20;99.90
70475;DHT22;57944;48.722;9.316;2024-02-26T09:42:56;12.10;99.90
70475;DHT22;57944;48.722;9.316;2024-02-26T09:45:30;11.90;99.90
70475;DHT22;57944;48.722;9.316;2024-02-26T09:48:05;11.80;99.90
70475;DHT22;57944;48.722;9.316;2024-02-26T09:50:40;11.60;99.90
70475;DHT22;57944;48.722;9.316;2024-02-26T09:53:12;11.30;99.90
70475;DHT22;57944;48.722;9.316;2024-02-26T09:55:45;11.00;99.90
70475;DHT22;57944;48.722;9.316;2024-02-26T09:58:16;10.70;99.90
70475;DHT22;57944;48.722;9.316;2024-02-26T10:00:55;10.60;99.90
70475;DHT22;57944;48.722;9.316;2024-02-26T10:03:34;10.70;99.90
70475;DHT22;57944;48.722;9.316;2024-02-26T10:06:11;11.10;99.90
70475;DHT22;57944;48.722;9.316;2024-02-26T10:08:43;11.70;99.90
70475;DHT22;57944;48.722;9.316;2024-02-26T10:11:18;12.20;99.90
70475;DHT22;57944;48.722;9.316;2024-02-26T10:13:49;12.90;99.90
70475;DHT22;57944;48.722;9.316;2024-02-26T10:16:19;13.70;99.90
70475;DHT22;57944;48.722;9.316;2024-02-26T10:18:51;14.60;99.90
70475;DHT22;57944;48.722;9.316;2024-02-26T10:21:26;15.30;99.90
70475;DHT22;57944;48.722;9.316;2024-02-26T10:23:57;15.90;99.90
70475;DHT22;57944;48.722;9.316;2024-02-26T10:26:30;16.00;99.90
70475;DHT22;57944;48.722;9.316;2024-02-26T10:29:00;15.70;99.90
70475;DHT22;57944;48.722;9.316;2024-02-26T10:31:31;16.00;99.90
70475;DHT22;57944;48.722;9.316;2024-02-26T10:34:02;16.00;99.90
70475;DHT22;57944;48.722;9.316;2024-02-26T10:36:34;16.30;99.90
70475;DHT22;57944;48.722;9.316;2024-02-26T10:39:18;16.90;99.90
70475;DHT22;57944;48.722;9.316;2024-02-26T10:41:51;18.00;99.90
70475;DHT22;57944;48.722;9.316;2024-02-26T10:44:22;19.00;99.90
70475;DHT22;57944;48.722;9.316;2024-02-26T10:46:52;19.80;99.90
70475;DHT22;57944;48.722;9.316;2024-02-26T10:49:23;19.70;99.90
70475;DHT22;57944;48.722;9.316;2024-02-26T10:51:56;19.10;99.90
70475;DHT22;57944;48.722;9.316;2024-02-26T10:54:27;18.10;99.90
70475;DHT22;57944;48.722;9.316;2024-02-26T10:57:03;17.40;99.90
70475;DHT22;57944;48.722;9.316;2024-02-26T10:59:35;17.30;99.90
70475;DHT22;57944;48.722;9.316;2024-02-26T11:02:08;17.70;99.90
70475;DHT22;57944;48.722;9.316;2024-02-26T11:04:40;18.00;99.90
70475;DHT22;57944;48.722;9.316;2024-02-26T11:07:11;18.20;99.90
70475;DHT22;57944;48.722;9.316;2024-02-26T11:09:44;18.30;99.90
70475;DHT22;57944;48.722;9.316;2024-02-26T11:14:55;18.30;99.90
70475;DHT22;57944;48.722;9.316;2024-02-26T11:17:28;18.40;99.90
70475;DHT22;57944;48.722;9.316;2024-02-26T11:20:01;18.50;99.90
70475;DHT22;57944;48.722;9.316;2024-02-26T11:22:32;18.40;99.90
70475;DHT22;57944;48.722;9.316;2024-02-26T11:25:04;17.90;99.90
70475;DHT22;57944;48.722;9.316;2024-02-26T11:27:44;17.90;99.90
70475;DHT22;57944;48.722;9.316;2024-02-26T11:30:19;17.60;99.90
70475;DHT22;57944;48.722;9.316;2024-02-26T11:32:51;17.20;99.90
70475;DHT22;57944;48.722;9.316;2024-02-26T11:35:23;17.20;99.90
70475;DHT22;57944;48.722;9.316;2024-02-26T11:37:54;17.20;99.90
70475;DHT22;57944;48.722;9.316;2024-02-26T11:40:28;17.40;99.90
70475;DHT22;57944;48.722;9.316;2024-02-26T11:43:04;17.60;99.90
70475;DHT22;57944;48.722;9.316;2024-02-26T11:45:52;17.90;99.90
70475;DHT22;57944;48.722;9.316;2024-02-26T11:48:28;18.20;99.90
70475;DHT22;57944;48.722;9.316;2024-02-26T11:50:59;18.00;99.90
70475;DHT22;57944;48.722;9.316;2024-02-26T11:53:31;17.50;99.90
70475;DHT22;57944;48.722;9.316;2024-02-26T11:56:21;17.60;99.80
70475;DHT22;57944;48.722;9.316;2024-02-26T11:59:09;17.90;99.50
70475;DHT22;57944;48.722;9.316;2024-02-26T12:01:41;18.10;99.30
70475;DHT22;57944;48.722;9.316;2024-02-26T12:04:18;18.60;99.00
70475;DHT22;57944;48.722;9.316;2024-02-26T12:06:52;18.70;99.20
70475;DHT22;57944;48.722;9.316;2024-02-26T12:09:34;18.90;99.40
70475;DHT22;57944;48.722;9.316;2024-02-26T12:12:07;19.30;99.10
70475;DHT22;57944;48.722;9.316;2024-02-26T12:14:51;19.70;98.80
70475;DHT22;57944;48.722;9.316;2024-02-26T12:17:24;20.10;98.80
